createdAt,value
2023-01-12T00:00:06.088Z,99103.00
2023-01-12T00:02:37.023Z,99095.00
2023-01-12T00:05:08.392Z,99086.00
2023-01-12T00:07:39.534Z,99094.00
2023-01-12T00:10:10.856Z,99097.00
2023-01-12T00:12:41.716Z,99096.00
2023-01-12T00:15:12.540Z,99091.00
2023-01-12T00:17:43.392Z,99087.00
2023-01-12T00:20:14.229Z,99089.00
2023-01-12T00:22:49.672Z,99079.00
2023-01-12T00:25:20.607Z,99069.00
2023-01-12T00:27:51.559Z,99082.00
2023-01-12T00:30:22.463Z,99079.00
2023-01-12T00:32:56.332Z,99081.00
2023-01-12T00:35:27.246Z,99081.00
2023-01-12T00:37:58.186Z,99095.00
2023-01-12T00:40:29.104Z,99086.00
2023-01-12T00:43:18.376Z,99079.00
2023-01-12T00:45:52.456Z,99075.00
2023-01-12T00:48:24.219Z,99069.00
2023-01-12T00:50:55.115Z,99061.00
2023-01-12T00:53:26.036Z,99059.00
2023-01-12T00:56:02.699Z,99066.00
2023-01-12T00:58:33.654Z,99058.00
2023-01-12T01:01:07.152Z,99060.00
2023-01-12T01:03:38.222Z,99061.00
2023-01-12T01:06:09.092Z,99062.00
2023-01-12T01:08:40.097Z,99063.00
2023-01-12T01:11:12.869Z,99056.00
2023-01-12T01:13:44.138Z,99064.00
2023-01-12T01:16:17.794Z,99057.00
2023-01-12T01:18:48.769Z,99064.00
2023-01-12T01:21:19.760Z,99057.00
2023-01-12T01:23:50.943Z,99055.00
2023-01-12T01:26:24.324Z,99055.00
2023-01-12T01:28:58.288Z,99056.00
2023-01-12T01:31:29.411Z,99057.00
2023-01-12T01:34:00.446Z,99062.00
2023-01-12T01:36:31.536Z,99063.00
2023-01-12T01:39:02.559Z,99055.00
2023-01-12T01:41:33.993Z,99071.00
2023-01-12T01:44:29.789Z,99071.00
2023-01-12T01:47:03.551Z,99075.00
2023-01-12T01:49:51.783Z,99069.00
2023-01-12T01:52:37.099Z,99085.00
2023-01-12T01:55:13.482Z,99081.00
2023-01-12T01:58:14.677Z,99088.00
2023-01-12T02:00:46.615Z,99078.00
2023-01-12T02:03:18.766Z,99074.00
2023-01-12T02:05:50.137Z,99079.00
2023-01-12T02:08:34.085Z,99078.00
2023-01-12T02:11:25.755Z,99071.00
2023-01-12T02:14:18.495Z,99062.00
2023-01-12T02:17:09.818Z,99065.00
2023-01-12T02:20:11.263Z,99049.00
2023-01-12T02:23:15.826Z,99039.00
2023-01-12T02:26:20.583Z,99039.00
2023-01-12T02:29:12.546Z,99039.00
2023-01-12T02:32:40.633Z,99032.00
2023-01-12T02:35:41.735Z,99030.00
2023-01-12T02:38:31.287Z,99021.00
2023-01-12T02:41:45.403Z,99027.00
2023-01-12T02:45:15.606Z,99015.00
2023-01-12T02:47:58.966Z,99015.00
2023-01-12T02:50:59.022Z,99017.00
2023-01-12T02:53:47.166Z,99011.00
2023-01-12T02:56:42.113Z,99007.00
2023-01-12T02:59:31.546Z,98988.00
2023-01-12T03:02:18.273Z,98989.00
2023-01-12T03:04:49.726Z,98987.00
2023-01-12T03:07:33.283Z,98988.00
2023-01-12T03:10:37.001Z,98970.00
2023-01-12T03:13:16.316Z,98976.00
2023-01-12T03:15:55.071Z,98986.00
2023-01-12T03:19:01.145Z,99004.00
2023-01-12T03:22:01.083Z,99000.00
2023-01-12T03:24:44.260Z,99002.00
2023-01-12T03:27:28.611Z,98997.00
2023-01-12T03:30:58.228Z,98992.00
2023-01-12T03:33:29.865Z,98992.00
2023-01-12T03:36:24.968Z,98990.00
2023-01-12T03:39:27.642Z,98989.00
2023-01-12T03:42:11.783Z,98989.00
2023-01-12T03:45:19.437Z,98986.00
2023-01-12T03:48:02.369Z,98982.00
2023-01-12T03:50:55.663Z,98988.00
2023-01-12T03:53:27.993Z,98995.00
2023-01-12T03:56:07.134Z,98985.00
2023-01-12T03:58:38.114Z,98984.00
2023-01-12T04:01:09.075Z,98989.00
2023-01-12T04:03:40.337Z,98986.00
2023-01-12T04:06:11.492Z,99010.00
2023-01-12T04:08:42.413Z,98979.00
2023-01-12T04:11:31.995Z,98981.00
2023-01-12T04:14:02.885Z,98979.00
2023-01-12T04:16:33.839Z,98976.00
2023-01-12T04:19:04.761Z,98974.00
2023-01-12T04:21:54.002Z,98982.00
2023-01-12T04:24:24.909Z,98974.00
2023-01-12T04:26:55.850Z,98968.00
2023-01-12T04:29:26.778Z,98971.00
2023-01-12T04:31:57.888Z,98972.00
2023-01-12T04:34:28.791Z,98967.00
2023-01-12T04:37:04.544Z,98946.00
2023-01-12T04:39:35.440Z,98950.00
2023-01-12T04:42:26.323Z,98939.00
2023-01-12T04:44:57.259Z,98938.00
2023-01-12T04:47:28.227Z,98935.00
2023-01-12T04:49:59.224Z,98921.00
2023-01-12T04:52:30.096Z,98915.00
2023-01-12T04:55:01.188Z,98917.00
2023-01-12T04:57:32.498Z,98913.00
2023-01-12T05:00:06.443Z,98921.00
2023-01-12T05:02:37.344Z,98915.00
2023-01-12T05:05:09.183Z,98922.00
2023-01-12T05:08:00.130Z,98915.00
2023-01-12T05:10:31.101Z,98922.00
2023-01-12T05:13:08.367Z,98921.00
2023-01-12T05:15:39.250Z,98918.00
2023-01-12T05:18:10.203Z,98934.00
2023-01-12T05:20:41.230Z,98919.00
2023-01-12T05:23:12.186Z,98924.00
2023-01-12T05:25:43.162Z,98920.00
2023-01-12T05:28:14.078Z,98918.00
2023-01-12T05:30:48.288Z,98903.00
2023-01-12T05:33:20.173Z,98912.00
2023-01-12T05:35:51.044Z,98911.00
2023-01-12T05:38:21.982Z,98900.00
2023-01-12T05:40:52.829Z,98904.00
2023-01-12T05:43:42.160Z,98908.00
2023-01-12T05:46:14.059Z,98909.00
2023-01-12T05:48:45.018Z,98906.00
2023-01-12T05:51:16.465Z,98906.00
2023-01-12T05:53:48.048Z,98911.00
2023-01-12T05:56:28.356Z,98924.00
2023-01-12T05:59:01.760Z,98923.00
2023-01-12T06:01:33.142Z,98909.00
2023-01-12T06:04:04.199Z,98901.00
2023-01-12T06:06:35.132Z,98923.00
2023-01-12T06:09:08.870Z,98892.00
2023-01-12T06:11:58.063Z,98897.00
2023-01-12T06:14:28.951Z,98902.00
2023-01-12T06:16:59.851Z,98895.00
2023-01-12T06:19:30.799Z,98893.00
2023-01-12T06:22:01.765Z,98889.00
2023-01-12T06:24:32.682Z,98889.00
2023-01-12T06:27:04.076Z,98874.00
2023-01-12T06:29:34.978Z,98879.00
2023-01-12T06:32:05.830Z,98865.00
2023-01-12T06:34:37.511Z,98866.00
2023-01-12T06:37:13.105Z,98869.00
2023-01-12T06:39:43.991Z,98865.00
2023-01-12T06:42:29.957Z,98863.00
2023-01-12T06:45:03.948Z,98854.00
2023-01-12T06:47:44.440Z,98868.00
2023-01-12T06:50:15.903Z,98869.00
2023-01-12T06:52:46.932Z,98869.00
2023-01-12T06:55:18.560Z,98884.00
2023-01-12T06:57:49.536Z,98873.00
2023-01-12T07:00:21.435Z,98886.00
2023-01-12T07:02:52.617Z,98883.00
2023-01-12T07:05:23.814Z,98883.00
2023-01-12T07:08:03.169Z,98871.00
2023-01-12T07:10:34.013Z,98866.00
2023-01-12T07:13:05.091Z,98862.00
2023-01-12T07:15:36.035Z,98869.00
2023-01-12T07:18:07.074Z,98859.00
2023-01-12T07:20:37.951Z,98849.00
2023-01-12T07:23:09.064Z,98851.00
2023-01-12T07:25:39.945Z,98866.00
2023-01-12T07:28:13.574Z,98886.00
2023-01-12T07:30:44.485Z,98874.00
2023-01-12T07:33:18.572Z,98868.00
2023-01-12T07:35:49.659Z,98876.00
2023-01-12T07:38:20.539Z,98858.00
2023-01-12T07:40:51.411Z,98857.00
2023-01-12T07:43:23.394Z,98859.00
2023-01-12T07:45:58.587Z,98859.00
2023-01-12T07:48:30.913Z,98863.00
2023-01-12T07:51:02.987Z,98869.00
2023-01-12T07:53:34.511Z,98878.00
2023-01-12T07:56:05.695Z,98876.00
2023-01-12T07:58:37.464Z,98870.00
2023-01-12T08:01:08.668Z,98863.00
2023-01-12T08:03:39.982Z,98858.00
2023-01-12T08:06:11.369Z,98857.00
2023-01-12T08:08:42.377Z,98867.00
2023-01-12T08:11:15.967Z,98853.00
2023-01-12T08:13:47.147Z,98854.00
2023-01-12T08:16:25.003Z,98855.00
2023-01-12T08:19:52.136Z,98862.00
2023-01-12T08:22:33.011Z,98852.00
2023-01-12T08:25:13.764Z,98854.00
2023-01-12T08:27:50.398Z,98849.00
2023-01-12T08:30:24.429Z,98855.00
2023-01-12T08:33:01.843Z,98850.00
2023-01-12T08:35:35.476Z,98856.00
2023-01-12T08:38:06.447Z,98878.00
2023-01-12T08:40:55.763Z,98855.00
2023-01-12T08:43:44.992Z,98875.00
2023-01-12T08:46:16.051Z,98861.00
2023-01-12T08:48:47.060Z,98864.00
2023-01-12T08:51:17.996Z,98894.00
2023-01-12T08:53:49.192Z,98870.00
2023-01-12T08:56:20.189Z,98856.00
2023-01-12T08:58:51.114Z,98852.00
2023-01-12T09:01:22.302Z,98860.00
2023-01-12T09:03:53.936Z,98855.00
2023-01-12T09:06:35.900Z,98860.00
2023-01-12T09:09:10.579Z,98858.00
2023-01-12T09:11:43.855Z,98862.00
2023-01-12T09:14:19.394Z,98874.00
2023-01-12T09:16:51.232Z,98860.00
2023-01-12T09:19:22.453Z,98865.00
2023-01-12T09:21:53.334Z,98878.00
2023-01-12T09:24:24.209Z,98870.00
2023-01-12T09:26:55.119Z,98881.00
2023-01-12T09:29:25.996Z,98887.00
2023-01-12T09:31:57.038Z,98882.00
2023-01-12T09:34:28.175Z,98909.00
2023-01-12T09:36:59.615Z,98895.00
2023-01-12T09:39:31.107Z,98893.00
2023-01-12T09:42:24.085Z,98890.00
2023-01-12T09:45:13.292Z,98894.00
2023-01-12T09:47:57.168Z,98885.00
2023-01-12T09:50:37.064Z,98884.00
2023-01-12T09:53:20.368Z,98885.00
2023-01-12T09:56:08.400Z,98886.00
2023-01-12T09:59:22.129Z,98880.00
2023-01-12T10:01:54.213Z,98858.00
2023-01-12T10:04:25.823Z,98850.00
2023-01-12T10:06:57.363Z,98839.00
2023-01-12T10:09:28.358Z,98850.00
2023-01-12T10:12:24.502Z,98839.00
2023-01-12T10:15:24.141Z,98837.00
2023-01-12T10:18:04.616Z,98832.00
2023-01-12T10:20:43.463Z,98819.00
2023-01-12T10:23:19.459Z,98826.00
2023-01-12T10:26:20.280Z,98825.00
2023-01-12T10:28:54.536Z,98811.00
2023-01-12T10:31:26.784Z,98821.00
2023-01-12T10:34:09.219Z,98817.00
2023-01-12T10:36:50.569Z,98809.00
2023-01-12T10:39:34.705Z,98810.00
2023-01-12T10:42:43.189Z,98832.00
2023-01-12T10:45:23.757Z,98823.00
2023-01-12T10:47:56.253Z,98825.00
2023-01-12T10:50:37.408Z,98815.00
2023-01-12T10:53:16.199Z,98826.00
2023-01-12T10:55:47.566Z,98809.00
2023-01-12T10:58:26.043Z,98799.00
2023-01-12T11:00:57.813Z,98807.00
2023-01-12T11:03:40.962Z,98806.00
2023-01-12T11:06:23.583Z,98782.00
2023-01-12T11:08:55.728Z,98775.00
2023-01-12T11:11:33.416Z,98768.00
2023-01-12T11:14:05.171Z,98766.00
2023-01-12T11:16:45.020Z,98773.00
2023-01-12T11:19:40.051Z,98756.00
2023-01-12T11:22:21.163Z,98776.00
2023-01-12T11:24:57.989Z,98777.00
2023-01-12T11:27:37.588Z,98765.00
2023-01-12T11:30:23.933Z,98761.00
2023-01-12T11:33:20.933Z,98773.00
2023-01-12T11:36:01.799Z,98762.00
2023-01-12T11:38:41.072Z,98761.00
2023-01-12T11:41:43.748Z,98760.00
2023-01-12T11:44:32.407Z,98752.00
2023-01-12T11:47:15.335Z,98743.00
2023-01-12T11:50:16.087Z,98734.00
2023-01-12T11:52:47.113Z,98736.00
2023-01-12T11:55:53.572Z,98730.00
2023-01-12T11:58:56.709Z,98730.00
2023-01-12T12:02:16.810Z,98724.00
2023-01-12T12:05:26.200Z,98731.00
2023-01-12T12:08:11.379Z,98726.00
2023-01-12T12:11:18.346Z,98737.00
2023-01-12T12:14:23.625Z,98722.00
2023-01-12T12:17:07.369Z,98718.00
2023-01-12T12:19:59.360Z,98749.00
2023-01-12T12:23:23.540Z,98724.00
2023-01-12T12:26:09.261Z,98719.00
2023-01-12T12:28:48.326Z,98728.00
2023-01-12T12:31:48.822Z,98720.00
2023-01-12T12:34:44.605Z,98717.00
2023-01-12T12:37:51.633Z,98704.00
2023-01-12T12:41:17.833Z,98705.00
2023-01-12T12:44:32.774Z,98690.00
2023-01-12T12:47:30.843Z,98706.00
2023-01-12T12:50:04.502Z,98709.00
2023-01-12T12:52:38.625Z,98703.00
2023-01-12T12:55:13.088Z,98704.00
2023-01-12T12:58:28.563Z,98686.00
2023-01-12T13:01:25.598Z,98685.00
2023-01-12T13:03:58.430Z,98689.00
2023-01-12T13:06:32.021Z,98701.00
2023-01-12T13:09:17.029Z,98700.00
2023-01-12T13:12:00.438Z,98695.00
2023-01-12T13:14:42.603Z,98726.00
2023-01-12T13:17:19.643Z,98704.00
2023-01-12T13:20:02.099Z,98695.00
2023-01-12T13:22:40.055Z,98699.00
2023-01-12T13:25:16.707Z,98695.00
2023-01-12T13:28:19.031Z,98692.00
2023-01-12T13:30:55.554Z,98690.00
2023-01-12T13:33:28.411Z,98683.00
2023-01-12T13:36:08.099Z,98684.00
2023-01-12T13:38:52.501Z,98683.00
2023-01-12T13:41:52.969Z,98693.00
2023-01-12T13:44:40.228Z,98698.00
2023-01-12T13:47:26.875Z,98695.00
2023-01-12T13:50:00.935Z,98698.00
2023-01-12T13:52:37.171Z,98713.00
2023-01-12T13:55:24.929Z,98716.00
2023-01-12T13:58:02.747Z,98708.00
2023-01-12T14:00:34.919Z,98718.00
2023-01-12T14:03:06.051Z,98712.00
2023-01-12T14:06:26.593Z,98719.00
2023-01-12T14:09:30.660Z,98711.00
2023-01-12T14:12:26.040Z,98714.00
2023-01-12T14:15:44.883Z,98711.00
2023-01-12T14:18:18.969Z,98689.00
2023-01-12T14:20:53.526Z,98689.00
2023-01-12T14:23:27.246Z,98682.00
2023-01-12T14:26:07.066Z,98678.00
2023-01-12T14:28:45.017Z,98688.00
2023-01-12T14:31:36.766Z,98686.00
2023-01-12T14:34:29.328Z,98677.00
2023-01-12T14:37:01.462Z,98679.00
2023-01-12T14:39:41.088Z,98680.00
2023-01-12T14:42:36.800Z,98680.00
2023-01-12T14:45:43.014Z,98684.00
2023-01-12T14:48:32.182Z,98686.00
2023-01-12T14:51:37.515Z,98689.00
2023-01-12T14:54:08.615Z,98682.00
2023-01-12T14:56:41.563Z,98678.00
2023-01-12T14:59:20.830Z,98680.00
2023-01-12T15:02:20.025Z,98679.00
2023-01-12T15:04:50.936Z,98679.00
2023-01-12T15:07:23.652Z,98662.00
2023-01-12T15:10:05.457Z,98670.00
2023-01-12T15:12:44.019Z,98671.00
2023-01-12T15:15:27.205Z,98684.00
2023-01-12T15:18:16.465Z,98680.00
2023-01-12T15:21:06.446Z,98690.00
2023-01-12T15:23:56.365Z,98677.00
2023-01-12T15:26:27.307Z,98687.00
2023-01-12T15:28:58.214Z,98686.00
2023-01-12T15:31:40.285Z,98682.00
2023-01-12T15:34:12.292Z,98676.00
2023-01-12T15:36:43.253Z,98688.00
2023-01-12T15:39:14.847Z,98679.00
2023-01-12T15:42:04.351Z,98665.00
2023-01-12T15:44:38.390Z,98679.00
2023-01-12T15:47:14.087Z,98679.00
2023-01-12T15:49:48.954Z,98669.00
2023-01-12T15:52:25.311Z,98669.00
2023-01-12T15:54:56.346Z,98683.00
2023-01-12T15:57:27.280Z,98680.00
2023-01-12T15:59:58.147Z,98669.00
2023-01-12T16:02:36.759Z,98670.00
2023-01-12T16:05:09.468Z,98672.00
2023-01-12T16:07:40.583Z,98665.00
2023-01-12T16:10:13.545Z,98661.00
2023-01-12T16:12:45.843Z,98672.00
2023-01-12T16:15:18.165Z,98660.00
2023-01-12T16:17:49.616Z,98664.00
2023-01-12T16:20:21.209Z,98668.00
2023-01-12T16:22:54.895Z,98665.00
2023-01-12T16:25:26.034Z,98670.00
2023-01-12T16:27:57.557Z,98672.00
2023-01-12T16:30:28.428Z,98659.00
2023-01-12T16:32:59.406Z,98663.00
2023-01-12T16:35:33.532Z,98658.00
2023-01-12T16:38:04.464Z,98655.00
2023-01-12T16:40:35.497Z,98661.00
2023-01-12T16:43:06.557Z,98655.00
2023-01-12T16:45:44.462Z,98659.00
2023-01-12T16:48:15.390Z,98669.00
2023-01-12T16:50:46.544Z,98652.00
2023-01-12T16:53:17.469Z,98656.00
2023-01-12T16:55:48.372Z,98658.00
2023-01-12T16:58:19.720Z,98653.00
2023-01-12T17:00:51.624Z,98657.00
2023-01-12T17:03:22.885Z,98646.00
2023-01-12T17:05:53.782Z,98658.00
2023-01-12T17:08:24.820Z,98652.00
2023-01-12T17:10:55.935Z,98652.00
2023-01-12T17:13:26.870Z,98649.00
2023-01-12T17:15:57.850Z,98637.00
2023-01-12T17:18:28.970Z,98646.00
2023-01-12T17:21:05.890Z,98639.00
2023-01-12T17:23:38.282Z,98628.00
2023-01-12T17:26:14.470Z,98629.00
2023-01-12T17:28:46.820Z,98643.00
2023-01-12T17:31:24.249Z,98639.00
2023-01-12T17:33:59.058Z,98628.00
2023-01-12T17:36:30.748Z,98613.00
2023-01-12T17:39:02.503Z,98622.00
2023-01-12T17:41:53.882Z,98625.00
2023-01-12T17:44:24.851Z,98629.00
2023-01-12T17:46:55.838Z,98626.00
2023-01-12T17:49:26.811Z,98622.00
2023-01-12T17:51:59.825Z,98621.00
2023-01-12T17:54:30.804Z,98611.00
2023-01-12T17:57:01.767Z,98636.00
2023-01-12T17:59:32.904Z,98616.00
2023-01-12T18:02:04.490Z,98616.00
2023-01-12T18:04:35.523Z,98640.00
2023-01-12T18:07:06.452Z,98608.00
2023-01-12T18:09:37.453Z,98619.00
2023-01-12T18:12:10.384Z,98619.00
2023-01-12T18:14:41.367Z,98617.00
2023-01-12T18:17:12.795Z,98606.00
2023-01-12T18:19:43.725Z,98614.00
2023-01-12T18:22:14.665Z,98603.00
2023-01-12T18:24:48.746Z,98601.00
2023-01-12T18:27:19.642Z,98604.00
2023-01-12T18:29:50.611Z,98619.00
2023-01-12T18:32:21.758Z,98594.00
2023-01-12T18:34:52.703Z,98598.00
2023-01-12T18:37:23.653Z,98610.00
2023-01-12T18:39:54.555Z,98591.00
2023-01-12T18:42:44.270Z,98594.00
2023-01-12T18:45:15.980Z,98589.00
2023-01-12T18:48:05.152Z,98589.00
2023-01-12T18:50:54.906Z,98589.00
2023-01-12T18:53:27.053Z,98587.00
2023-01-12T18:55:58.970Z,98584.00
2023-01-12T18:58:33.536Z,98586.00
2023-01-12T19:01:11.032Z,98577.00
2023-01-12T19:03:42.129Z,98589.00
2023-01-12T19:06:28.874Z,98586.00
2023-01-12T19:09:18.438Z,98577.00
2023-01-12T19:11:49.476Z,98580.00
2023-01-12T19:14:39.052Z,98586.00
2023-01-12T19:17:29.733Z,98585.00
2023-01-12T19:20:07.402Z,98582.00
2023-01-12T19:22:56.855Z,98590.00
2023-01-12T19:25:47.108Z,98588.00
2023-01-12T19:28:35.482Z,98581.00
2023-01-12T19:31:12.449Z,98586.00
2023-01-12T19:33:43.792Z,98577.00
2023-01-12T19:36:16.018Z,98576.00
2023-01-12T19:38:53.861Z,98577.00
2023-01-12T19:41:43.287Z,98576.00
2023-01-12T19:44:14.174Z,98579.00
2023-01-12T19:46:45.116Z,98559.00
2023-01-12T19:49:17.758Z,98575.00
2023-01-12T19:51:52.408Z,98567.00
2023-01-12T19:54:23.403Z,98571.00
2023-01-12T19:56:54.319Z,98572.00
2023-01-12T19:59:25.382Z,98581.00
2023-01-12T20:01:56.577Z,98578.00
2023-01-12T20:04:27.468Z,98574.00
2023-01-12T20:06:58.534Z,98576.00
2023-01-12T20:09:29.536Z,98582.00
2023-01-12T20:12:00.520Z,98583.00
2023-01-12T20:14:31.694Z,98582.00
2023-01-12T20:17:02.761Z,98574.00
2023-01-12T20:19:34.736Z,98580.00
2023-01-12T20:22:05.669Z,98564.00
2023-01-12T20:24:36.753Z,98559.00
2023-01-12T20:27:10.352Z,98546.00
2023-01-12T20:29:41.286Z,98550.00
2023-01-12T20:32:12.235Z,98549.00
2023-01-12T20:34:43.558Z,98543.00
2023-01-12T20:37:14.601Z,98523.00
2023-01-12T20:39:45.681Z,98529.00
2023-01-12T20:42:16.605Z,98541.00
2023-01-12T20:44:47.886Z,98519.00
2023-01-12T20:47:19.639Z,98529.00
2023-01-12T20:49:50.546Z,98520.00
2023-01-12T20:52:24.047Z,98515.00
2023-01-12T20:54:55.317Z,98503.00
2023-01-12T20:57:27.048Z,98504.00
2023-01-12T20:59:57.951Z,98504.00
2023-01-12T21:02:28.873Z,98505.00
2023-01-12T21:04:59.855Z,98505.00
2023-01-12T21:07:31.654Z,98510.00
2023-01-12T21:10:02.640Z,98496.00
2023-01-12T21:12:33.730Z,98502.00
2023-01-12T21:15:05.623Z,98498.00
2023-01-12T21:17:39.177Z,98482.00
2023-01-12T21:20:11.550Z,98484.00
2023-01-12T21:22:42.477Z,98479.00
2023-01-12T21:25:27.509Z,98476.00
2023-01-12T21:27:58.444Z,98475.00
2023-01-12T21:30:29.435Z,98466.00
2023-01-12T21:33:00.647Z,98466.00
2023-01-12T21:35:31.646Z,98462.00
2023-01-12T21:38:02.883Z,98470.00
2023-01-12T21:40:34.668Z,98476.00
2023-01-12T21:43:08.370Z,98455.00
2023-01-12T21:45:46.114Z,98450.00
2023-01-12T21:48:20.112Z,98469.00
2023-01-12T21:50:51.352Z,98450.00
2023-01-12T21:53:23.209Z,98448.00
2023-01-12T21:56:00.685Z,98457.00
2023-01-12T21:58:34.423Z,98451.00
2023-01-12T22:01:14.204Z,98454.00
2023-01-12T22:03:45.298Z,98449.00
2023-01-12T22:06:16.249Z,98453.00
2023-01-12T22:08:47.181Z,98456.00
2023-01-12T22:11:18.421Z,98444.00
2023-01-12T22:13:49.587Z,98460.00
2023-01-12T22:16:23.292Z,98456.00
2023-01-12T22:19:00.475Z,98452.00
2023-01-12T22:21:32.498Z,98454.00
2023-01-12T22:24:06.115Z,98448.00
2023-01-12T22:26:39.666Z,98452.00
2023-01-12T22:29:13.116Z,98441.00
2023-01-12T22:31:44.180Z,98444.00
2023-01-12T22:34:17.413Z,98432.00
2023-01-12T22:36:48.338Z,98437.00
2023-01-12T22:39:19.226Z,98439.00
2023-01-12T22:41:52.981Z,98434.00
2023-01-12T22:44:26.931Z,98430.00
2023-01-12T22:46:57.846Z,98434.00
2023-01-12T22:49:29.714Z,98436.00
2023-01-12T22:52:03.849Z,98448.00
2023-01-12T22:54:34.773Z,98438.00
2023-01-12T22:57:06.821Z,98441.00
2023-01-12T22:59:37.724Z,98441.00
2023-01-12T23:02:28.793Z,98430.00
2023-01-12T23:05:00.727Z,98431.00
2023-01-12T23:07:31.764Z,98430.00
2023-01-12T23:10:02.852Z,98428.00
2023-01-12T23:12:33.856Z,98429.00
2023-01-12T23:15:05.592Z,98429.00
2023-01-12T23:17:36.871Z,98415.00
2023-01-12T23:20:09.311Z,98417.00
2023-01-12T23:22:40.334Z,98412.00
2023-01-12T23:25:11.340Z,98413.00
2023-01-12T23:27:43.215Z,98425.00
2023-01-12T23:30:14.561Z,98414.00
2023-01-12T23:32:46.243Z,98403.00
2023-01-12T23:35:17.491Z,98405.00
2023-01-12T23:37:48.535Z,98408.00
2023-01-12T23:40:20.192Z,98415.00
2023-01-12T23:42:51.195Z,98409.00
2023-01-12T23:45:22.223Z,98410.00
2023-01-12T23:47:53.207Z,98408.00
2023-01-12T23:50:24.694Z,98418.00
2023-01-12T23:52:55.835Z,98416.00
2023-01-12T23:55:28.122Z,98398.00
2023-01-12T23:57:59.135Z,98401.00
